createdAt,value
2017-03-10T00:00:45.285Z,35.61
2017-03-10T00:01:45.235Z,35.61
2017-03-10T00:02:45.254Z,35.42
2017-03-10T00:03:44.857Z,35.52
2017-03-10T00:04:45.303Z,35.32
2017-03-10T00:05:44.877Z,35.32
2017-03-10T00:06:45.277Z,35.52
2017-03-10T00:07:45.270Z,35.52
2017-03-10T00:08:45.277Z,35.52
2017-03-10T00:09:44.888Z,35.52
2017-03-10T00:10:44.959Z,35.61
2017-03-10T00:11:45.298Z,35.52
2017-03-10T00:12:45.300Z,35.61
2017-03-10T00:13:45.420Z,36
2017-03-10T00:14:45.318Z,35.71
2017-03-10T00:15:45.379Z,35.71
2017-03-10T00:16:45.327Z,36.38
2017-03-10T00:17:45.338Z,35.71
2017-03-10T00:18:45.439Z,35.61
2017-03-10T00:19:45.407Z,35.52
2017-03-10T00:20:44.961Z,35.32
2017-03-10T00:21:45.424Z,35.71
2017-03-10T00:22:45.416Z,35.61
2017-03-10T00:23:45.422Z,35.61
2017-03-10T00:24:45.384Z,35.52
2017-03-10T00:25:45.436Z,35.52
2017-03-10T00:26:45.441Z,35.42
2017-03-10T00:27:45.453Z,35.52
2017-03-10T00:28:45.472Z,35.42
2017-03-10T00:29:45.027Z,35.52
2017-03-10T00:30:45.031Z,35.42
2017-03-10T00:31:45.542Z,35.52
2017-03-10T00:32:45.479Z,35.61
2017-03-10T00:33:45.538Z,35.8
2017-03-10T00:34:45.441Z,35.71
2017-03-10T00:35:45.500Z,35.71
2017-03-10T00:36:45.503Z,35.42
2017-03-10T00:37:46.252Z,35.42
2017-03-10T00:38:45.523Z,35.42
2017-03-10T00:39:45.472Z,35.61
2017-03-10T00:40:45.528Z,35.32
2017-03-10T00:41:45.585Z,35.32
2017-03-10T00:42:45.541Z,35.32
2017-03-10T00:43:45.547Z,35.52
2017-03-10T00:44:45.551Z,35.32
2017-03-10T00:45:45.171Z,35.32
2017-03-10T00:46:45.573Z,35.32
2017-03-10T00:47:45.521Z,35.52
2017-03-10T00:48:45.639Z,35.42
2017-03-10T00:49:45.991Z,35.32
2017-03-10T00:50:45.602Z,35.22
2017-03-10T00:51:45.561Z,35.42
2017-03-10T00:52:45.604Z,35.32
2017-03-10T00:53:45.611Z,35.32
2017-03-10T00:54:45.620Z,35.13
2017-03-10T00:55:45.575Z,35.03
2017-03-10T00:56:45.181Z,35.13
2017-03-10T00:57:45.650Z,35.13
2017-03-10T00:58:45.693Z,35.03
2017-03-10T00:59:45.697Z,35.03
2017-03-10T01:00:45.656Z,35.03
2017-03-10T01:01:45.618Z,35.03
2017-03-10T01:02:45.614Z,35.13
2017-03-10T01:03:45.682Z,35.03
2017-03-10T01:04:45.733Z,34.94
2017-03-10T01:05:45.644Z,35.13
2017-03-10T01:06:45.657Z,34.84
2017-03-10T01:07:47.352Z,34.74
2017-03-10T01:08:45.684Z,34.64
2017-03-10T01:09:45.672Z,34.84
2017-03-10T01:10:45.672Z,34.94
2017-03-10T01:11:45.678Z,35.22
2017-03-10T01:12:45.728Z,35.03
2017-03-10T01:13:45.739Z,35.13
2017-03-10T01:14:45.709Z,35.03
2017-03-10T01:15:45.749Z,35.22
2017-03-10T01:16:45.756Z,35.03
2017-03-10T01:17:45.715Z,35.03
2017-03-10T01:18:45.770Z,35.03
2017-03-10T01:19:45.723Z,34.94
2017-03-10T01:20:45.781Z,34.94
2017-03-10T01:21:45.752Z,34.94
2017-03-10T01:22:45.742Z,34.84
2017-03-10T01:23:45.849Z,34.84
2017-03-10T01:24:45.370Z,34.64
2017-03-10T01:25:45.369Z,34.74
2017-03-10T01:26:45.772Z,34.84
2017-03-10T01:27:45.774Z,34.74
2017-03-10T01:28:45.833Z,34.64
2017-03-10T01:29:45.788Z,35.02
2017-03-10T01:30:45.846Z,34.84
2017-03-10T01:31:45.799Z,34.84
2017-03-10T01:32:45.813Z,35.13
2017-03-10T01:33:45.815Z,35.03
2017-03-10T01:34:45.424Z,34.74
2017-03-10T01:35:45.829Z,34.84
2017-03-10T01:36:45.834Z,34.94
2017-03-10T01:37:45.493Z,35.13
2017-03-10T01:38:45.896Z,34.74
2017-03-10T01:39:45.903Z,34.74
2017-03-10T01:40:45.472Z,34.63
2017-03-10T01:41:45.517Z,34.74
2017-03-10T01:42:45.487Z,34.72
2017-03-10T01:43:45.534Z,34.64
2017-03-10T01:44:45.933Z,34.64
2017-03-10T01:45:45.952Z,34.64
2017-03-10T01:46:45.943Z,34.55
2017-03-10T01:47:45.950Z,34.64
2017-03-10T01:48:45.907Z,34.84
2017-03-10T01:49:45.570Z,34.64
2017-03-10T01:50:45.974Z,34.74
2017-03-10T01:51:46.240Z,34.74
2017-03-10T01:52:45.952Z,34.74
2017-03-10T01:53:45.937Z,34.84
2017-03-10T01:54:46.045Z,34.84
2017-03-10T01:55:46.308Z,34.84
2017-03-10T01:56:46.000Z,34.84
2017-03-10T01:57:45.966Z,35.03
2017-03-10T01:58:45.991Z,34.94
2017-03-10T01:59:46.027Z,34.74
2017-03-10T02:00:45.988Z,35.03
2017-03-10T02:01:45.987Z,34.94
2017-03-10T02:02:46.056Z,34.94
2017-03-10T02:03:46.002Z,34.84
2017-03-10T02:04:46.007Z,34.84
2017-03-10T02:05:46.014Z,34.84
2017-03-10T02:06:46.035Z,34.84
2017-03-10T02:07:46.027Z,34.94
2017-03-10T02:08:46.091Z,34.55
2017-03-10T02:09:46.100Z,34.16
2017-03-10T02:10:45.662Z,34.45
2017-03-10T02:11:46.101Z,34.26
2017-03-10T02:12:46.384Z,34.36
2017-03-10T02:13:46.163Z,34.26
2017-03-10T02:14:45.676Z,34.16
2017-03-10T02:15:46.143Z,34.45
2017-03-10T02:16:46.148Z,34.64
2017-03-10T02:17:45.756Z,34.64
2017-03-10T02:18:46.103Z,34.55
2017-03-10T02:19:46.103Z,34.55
2017-03-10T02:20:46.109Z,34.45
2017-03-10T02:21:46.173Z,34.26
2017-03-10T02:22:46.136Z,34.36
2017-03-10T02:23:45.783Z,34.16
2017-03-10T02:24:46.133Z,34.16
2017-03-10T02:25:45.754Z,33.78
2017-03-10T02:26:46.445Z,34.36
2017-03-10T02:27:46.205Z,34.36
2017-03-10T02:28:46.161Z,34.36
2017-03-10T02:29:46.272Z,34.26
2017-03-10T02:30:46.279Z,34.06
2017-03-10T02:31:46.243Z,34.26
2017-03-10T02:32:46.188Z,34.16
2017-03-10T02:33:45.849Z,34.64
2017-03-10T02:34:46.249Z,34.26
2017-03-10T02:35:46.207Z,34.26
2017-03-10T02:36:46.272Z,34.45
2017-03-10T02:37:46.317Z,34.36
2017-03-10T02:38:46.225Z,34.45
2017-03-10T02:39:46.230Z,34.16
2017-03-10T02:40:46.286Z,34.26
2017-03-10T02:41:46.306Z,34.36
2017-03-10T02:42:45.909Z,34.45
2017-03-10T02:43:46.355Z,34.36
2017-03-10T02:44:46.267Z,34.26
2017-03-10T02:45:45.919Z,34.55
2017-03-10T02:46:46.343Z,34.55
2017-03-10T02:47:46.284Z,34.45
2017-03-10T02:48:46.296Z,34.64
2017-03-10T02:49:46.293Z,34.16
2017-03-10T02:50:46.306Z,34.45
2017-03-10T02:51:46.368Z,34.45
2017-03-10T02:52:45.966Z,34.26
2017-03-10T02:53:46.418Z,34.06
2017-03-10T02:54:46.375Z,34.26
2017-03-10T02:55:46.430Z,34.26
2017-03-10T02:56:46.449Z,34.45
2017-03-10T02:57:45.999Z,34.16
2017-03-10T02:58:46.476Z,34.16
2017-03-10T02:59:46.364Z,34.24
2017-03-10T03:00:46.411Z,34.34
2017-03-10T03:01:45.982Z,34.16
2017-03-10T03:02:46.423Z,34.45
2017-03-10T03:03:46.435Z,34.06
2017-03-10T03:04:46.443Z,34.16
2017-03-10T03:05:46.442Z,33.97
2017-03-10T03:06:46.399Z,34.16
2017-03-10T03:07:46.470Z,34.16
2017-03-10T03:08:47.268Z,33.97
2017-03-10T03:09:46.125Z,34.06
2017-03-10T03:10:46.533Z,34.16
2017-03-10T03:11:46.502Z,33.78
2017-03-10T03:12:46.451Z,33.97
2017-03-10T03:13:46.553Z,33.97
2017-03-10T03:14:46.501Z,33.87
2017-03-10T03:15:46.453Z,33.97
2017-03-10T03:16:46.466Z,33.78
2017-03-10T03:17:46.521Z,33.97
2017-03-10T03:18:46.525Z,33.87
2017-03-10T03:19:46.498Z,33.97
2017-03-10T03:20:46.609Z,33.48
2017-03-10T03:21:46.543Z,33.58
2017-03-10T03:22:46.551Z,33.68
2017-03-10T03:23:46.514Z,33.68
2017-03-10T03:24:46.512Z,33.48
2017-03-10T03:25:46.518Z,33.58
2017-03-10T03:26:46.578Z,33.68
2017-03-10T03:27:46.541Z,33.78
2017-03-10T03:28:46.643Z,33.78
2017-03-10T03:29:46.602Z,33.78
2017-03-10T03:30:46.551Z,33.87
2017-03-10T03:31:46.605Z,34.06
2017-03-10T03:32:46.668Z,33.68
2017-03-10T03:33:46.174Z,33.87
2017-03-10T03:34:46.242Z,33.87
2017-03-10T03:35:46.579Z,33.78
2017-03-10T03:36:46.640Z,33.97
2017-03-10T03:37:46.600Z,34.36
2017-03-10T03:38:46.653Z,33.68
2017-03-10T03:39:46.655Z,33.68
2017-03-10T03:40:46.613Z,34.06
2017-03-10T03:41:46.621Z,34.16
2017-03-10T03:42:46.278Z,33.68
2017-03-10T03:44:46.736Z,33.97
2017-03-10T03:45:46.259Z,33.87
2017-03-10T03:46:46.702Z,34.05
2017-03-10T03:47:46.705Z,34.06
2017-03-10T03:48:46.713Z,34.06
2017-03-10T03:49:47.018Z,33.68
2017-03-10T03:50:46.682Z,33.97
2017-03-10T03:51:46.681Z,33.58
2017-03-10T03:52:46.788Z,33.58
2017-03-10T03:53:46.745Z,33.78
2017-03-10T03:54:46.355Z,33.58
2017-03-10T03:55:46.772Z,33.87
2017-03-10T03:56:46.763Z,33.68
2017-03-10T03:57:46.724Z,33.68
2017-03-10T03:58:46.726Z,33.78
2017-03-10T03:59:46.733Z,33.68
2017-03-10T04:00:46.788Z,33.68
2017-03-10T04:01:46.790Z,33.87
2017-03-10T04:02:46.799Z,33.68
2017-03-10T04:03:46.812Z,33.78
2017-03-10T04:04:46.866Z,33.48
2017-03-10T04:05:46.770Z,33.68
2017-03-10T04:06:46.837Z,33.29
2017-03-10T04:07:46.390Z,33.48
2017-03-10T04:08:46.797Z,33.2
2017-03-10T04:09:46.848Z,33.39
2017-03-10T04:10:46.798Z,33.48
2017-03-10T04:11:46.808Z,33.68
2017-03-10T04:12:46.829Z,33.87
2017-03-10T04:14:46.827Z,33.78
2017-03-10T04:15:47.240Z,33.29
2017-03-10T04:16:46.552Z,33.39
2017-03-10T04:17:46.852Z,33.39
2017-03-10T04:18:46.901Z,33.39
2017-03-10T04:19:46.461Z,33.58
2017-03-10T04:20:46.917Z,33.48
2017-03-10T04:21:46.918Z,33.39
2017-03-10T04:22:46.874Z,33.48
2017-03-10T04:23:46.930Z,33.39
2017-03-10T04:24:46.886Z,33.48
2017-03-10T04:25:46.547Z,33.39
2017-03-10T04:26:46.956Z,33.48
2017-03-10T04:27:46.906Z,33.2
2017-03-10T04:28:46.970Z,33.48
2017-03-10T04:29:46.976Z,33.2
2017-03-10T04:30:46.921Z,32.81
2017-03-10T04:31:46.585Z,33.39
2017-03-10T04:32:46.986Z,33.29
2017-03-10T04:33:46.608Z,33.1
2017-03-10T04:34:47.002Z,33.1
2017-03-10T04:35:47.021Z,33.2
2017-03-10T04:36:46.968Z,33.29
2017-03-10T04:37:46.971Z,33
2017-03-10T04:38:46.975Z,32.91
2017-03-10T04:39:47.091Z,33.2
2017-03-10T04:40:46.595Z,32.92
2017-03-10T04:41:46.995Z,33
2017-03-10T04:42:47.051Z,32.62
2017-03-10T04:44:47.064Z,33
2017-03-10T04:45:47.082Z,32.71
2017-03-10T04:46:47.126Z,33
2017-03-10T04:47:47.083Z,33.2
2017-03-10T04:48:47.039Z,33
2017-03-10T04:49:47.050Z,33.2
2017-03-10T04:50:47.062Z,33.29
2017-03-10T04:51:47.111Z,33.2
2017-03-10T04:52:47.112Z,32.91
2017-03-10T04:53:46.678Z,33.39
2017-03-10T04:54:47.078Z,33.1
2017-03-10T04:55:47.387Z,33.1
2017-03-10T04:56:47.197Z,32.91
2017-03-10T04:57:47.096Z,33.29
2017-03-10T04:58:47.152Z,33.1
2017-03-10T04:59:46.711Z,32.91
2017-03-10T05:00:47.177Z,32.81
2017-03-10T05:01:47.173Z,32.81
2017-03-10T05:02:47.179Z,32.81
2017-03-10T05:03:47.184Z,32.71
2017-03-10T05:04:46.744Z,32.71
2017-03-10T05:05:47.211Z,33
2017-03-10T05:06:47.206Z,32.91
2017-03-10T05:07:48.217Z,32.91
2017-03-10T05:08:47.217Z,32.71
2017-03-10T05:09:47.221Z,32.91
2017-03-10T05:10:47.179Z,32.81
2017-03-10T05:11:47.196Z,33
2017-03-10T05:12:47.192Z,32.91
2017-03-10T05:13:46.850Z,32.91
2017-03-10T05:14:47.205Z,32.81
2017-03-10T05:15:47.272Z,33
2017-03-10T05:16:47.299Z,33.2
2017-03-10T05:17:46.831Z,33.29
2017-03-10T05:18:47.229Z,33.1
2017-03-10T05:19:47.285Z,33.1
2017-03-10T05:20:47.294Z,33.2
2017-03-10T05:21:47.304Z,33.29
2017-03-10T05:22:47.455Z,32.91
2017-03-10T05:23:47.315Z,32.91
2017-03-10T05:24:46.885Z,32.91
2017-03-10T05:25:47.279Z,32.91
2017-03-10T05:26:47.278Z,33.29
2017-03-10T05:27:47.340Z,33.2
2017-03-10T05:28:47.295Z,33.2
2017-03-10T05:29:46.914Z,32.81
2017-03-10T05:30:47.304Z,33
2017-03-10T05:31:47.312Z,33
2017-03-10T05:32:47.317Z,33
2017-03-10T05:33:47.425Z,32.91
2017-03-10T05:34:47.381Z,32.91
2017-03-10T05:35:47.386Z,32.91
2017-03-10T05:36:47.344Z,32.62
2017-03-10T05:37:46.954Z,32.91
2017-03-10T05:38:47.409Z,32.71
2017-03-10T05:39:47.424Z,32.71
2017-03-10T05:40:47.429Z,32.81
2017-03-10T05:41:47.425Z,32.71
2017-03-10T05:42:47.382Z,32.71
2017-03-10T05:43:47.438Z,32.91
2017-03-10T05:44:47.048Z,32.81
2017-03-10T05:45:47.459Z,32.81
2017-03-10T05:46:47.408Z,32.81
2017-03-10T05:47:47.515Z,32.71
2017-03-10T05:48:47.420Z,32.81
2017-03-10T05:49:47.426Z,32.91
2017-03-10T05:50:47.439Z,32.81
2017-03-10T05:51:47.488Z,32.81
2017-03-10T05:52:47.508Z,32.71
2017-03-10T05:53:47.450Z,32.81
2017-03-10T05:54:47.458Z,32.71
2017-03-10T05:55:47.515Z,32.71
2017-03-10T05:56:47.520Z,33
2017-03-10T05:57:47.480Z,33
2017-03-10T05:58:47.815Z,32.91
2017-03-10T05:59:47.544Z,32.91
2017-03-10T06:00:47.571Z,32.81
2017-03-10T06:01:47.501Z,32.71
2017-03-10T06:02:47.576Z,32.91
2017-03-10T06:03:47.514Z,32.62
2017-03-10T06:04:47.522Z,32.71
2017-03-10T06:05:47.577Z,32.81
2017-03-10T06:06:47.543Z,32.71
2017-03-10T06:07:47.541Z,32.81
2017-03-10T06:08:47.598Z,32.81
2017-03-10T06:09:47.551Z,32.81
2017-03-10T06:10:47.212Z,32.71
2017-03-10T06:11:47.568Z,32.81
2017-03-10T06:12:47.572Z,32.71
2017-03-10T06:13:47.628Z,32.62
2017-03-10T06:14:47.632Z,32.71
2017-03-10T06:15:47.587Z,32.71
2017-03-10T06:16:47.259Z,32.52
2017-03-10T06:17:47.705Z,32.81
2017-03-10T06:18:47.669Z,32.71
2017-03-10T06:19:47.283Z,32.71
2017-03-10T06:20:47.622Z,32.81
2017-03-10T06:21:47.629Z,32.81
2017-03-10T06:22:47.696Z,32.71
2017-03-10T06:23:47.641Z,32.62
2017-03-10T06:24:47.646Z,32.81
2017-03-10T06:25:47.655Z,32.91
2017-03-10T06:26:47.712Z,32.91
2017-03-10T06:27:47.716Z,32.81
2017-03-10T06:28:47.292Z,32.91
2017-03-10T06:29:47.679Z,32.91
2017-03-10T06:30:47.786Z,32.91
2017-03-10T06:31:47.741Z,32.52
2017-03-10T06:32:47.762Z,32.52
2017-03-10T06:33:47.705Z,32.52
2017-03-10T06:34:47.712Z,32.43
2017-03-10T06:35:47.732Z,32.34
2017-03-10T06:36:47.828Z,32.33
2017-03-10T06:37:47.732Z,32.54
2017-03-10T06:38:47.835Z,32.33
2017-03-10T06:39:47.793Z,32.34
2017-03-10T06:40:47.798Z,32.33
2017-03-10T06:41:47.763Z,32.24
2017-03-10T06:42:47.760Z,32.24
2017-03-10T06:43:47.869Z,32.34
2017-03-10T06:44:47.773Z,32.24
2017-03-10T06:45:47.785Z,32.23
2017-03-10T06:46:47.787Z,32.33
2017-03-10T06:47:48.095Z,32.52
2017-03-10T06:48:47.852Z,32.52
2017-03-10T06:49:47.833Z,32.14
2017-03-10T06:50:47.813Z,32.15
2017-03-10T06:51:47.872Z,32.34
2017-03-10T06:52:47.829Z,32.24
2017-03-10T06:53:47.495Z,32.14
2017-03-10T06:54:47.487Z,32.15
2017-03-10T06:55:47.848Z,32.06
2017-03-10T06:56:47.960Z,32.24
2017-03-10T06:57:47.854Z,32.15
2017-03-10T06:58:47.910Z,32.14
2017-03-10T06:59:47.917Z,32.15
2017-03-10T07:00:47.878Z,32.15
2017-03-10T07:01:47.940Z,32.24
2017-03-10T07:02:47.937Z,32.24
2017-03-10T07:03:47.547Z,32.15
2017-03-10T07:04:47.949Z,32.15
2017-03-10T07:05:47.967Z,32.15
2017-03-10T07:06:47.971Z,32.04
2017-03-10T07:07:47.968Z,32.14
2017-03-10T07:08:47.924Z,32.14
2017-03-10T07:09:48.033Z,32.15
2017-03-10T07:10:47.990Z,31.96
2017-03-10T07:11:47.992Z,31.86
2017-03-10T07:12:48.003Z,31.86
2017-03-10T07:13:58.231Z,31.67
2017-03-10T07:14:48.011Z,31.57
2017-03-10T07:15:47.977Z,31.48
2017-03-10T07:16:47.983Z,31.38
2017-03-10T07:17:47.982Z,31.48
2017-03-10T07:18:47.990Z,31.48
2017-03-10T07:19:48.054Z,31.28
2017-03-10T07:20:48.050Z,31.38
2017-03-10T07:21:48.110Z,31.38
2017-03-10T07:22:48.013Z,31.48
2017-03-10T07:23:48.075Z,31.48
2017-03-10T07:24:47.633Z,31.48
2017-03-10T07:25:48.036Z,31.28
2017-03-10T07:26:48.042Z,31.1
2017-03-10T07:27:48.148Z,31.01
2017-03-10T07:28:48.058Z,30.43
2017-03-10T07:29:48.080Z,30.43
2017-03-10T07:30:48.122Z,29.96
2017-03-10T07:31:48.073Z,29.77
2017-03-10T07:32:48.083Z,29.49
2017-03-10T07:33:48.137Z,29.88
2017-03-10T07:34:48.142Z,28.91
2017-03-10T07:35:48.099Z,28.54
2017-03-10T07:36:48.105Z,28.15
2017-03-10T07:37:48.108Z,28.17
2017-03-10T07:38:47.733Z,27.68
2017-03-10T07:39:47.749Z,27.78
2017-03-10T07:40:48.192Z,27.87
2017-03-10T07:41:48.240Z,27.21
2017-03-10T07:42:48.203Z,27.5
2017-03-10T07:43:48.151Z,27.11
2017-03-10T07:44:48.212Z,26.74
2017-03-10T07:45:48.171Z,26.74
2017-03-10T07:46:48.171Z,26.54
2017-03-10T07:47:48.192Z,26.35
2017-03-10T07:48:47.838Z,26.35
2017-03-10T07:49:48.243Z,26.07
2017-03-10T07:50:47.806Z,26.37
2017-03-10T07:51:48.256Z,26.35
2017-03-10T07:52:48.226Z,26.37
2017-03-10T07:53:48.271Z,26.07
2017-03-10T07:54:48.379Z,26.37
2017-03-10T07:55:48.244Z,26.26
2017-03-10T07:56:48.256Z,26.46
2017-03-10T07:57:48.546Z,26.35
2017-03-10T07:58:48.357Z,26.35
2017-03-10T07:59:48.320Z,26.07
2017-03-10T08:00:48.270Z,25.98
2017-03-10T08:01:48.278Z,26.07
2017-03-10T08:02:48.284Z,25.98
2017-03-10T08:03:48.357Z,26.17
2017-03-10T08:04:48.299Z,26.07
2017-03-10T08:05:48.306Z,25.98
2017-03-10T08:06:48.371Z,25.88
2017-03-10T08:07:48.344Z,25.89
2017-03-10T08:08:48.327Z,26.09
2017-03-10T08:09:48.407Z,25.51
2017-03-10T08:10:48.441Z,25.7
2017-03-10T08:11:48.353Z,26.09
2017-03-10T08:12:48.358Z,25.7
2017-03-10T08:13:48.081Z,25.98
2017-03-10T08:14:48.420Z,25.88
2017-03-10T08:15:48.427Z,25.88
2017-03-10T08:16:48.434Z,26.07
2017-03-10T08:17:48.446Z,25.98
2017-03-10T08:18:48.455Z,26.07
2017-03-10T08:19:48.469Z,26.46
2017-03-10T08:20:48.489Z,26.27
2017-03-10T08:21:48.474Z,26.17
2017-03-10T08:22:48.481Z,26.46
2017-03-10T08:23:48.435Z,26.35
2017-03-10T08:24:48.491Z,26.35
2017-03-10T08:25:48.104Z,26.65
2017-03-10T08:26:48.512Z,26.84
2017-03-10T08:27:48.565Z,26.93
2017-03-10T08:28:48.573Z,26.93
2017-03-10T08:29:48.491Z,27.42
2017-03-10T08:30:48.536Z,27.31
2017-03-10T08:31:48.496Z,27.21
2017-03-10T08:32:48.555Z,27.4
2017-03-10T08:33:48.561Z,27.32
2017-03-10T08:34:48.120Z,27.4
2017-03-10T08:35:48.577Z,27.21
2017-03-10T08:36:48.136Z,27.7
2017-03-10T08:37:48.143Z,27.31
2017-03-10T08:38:48.599Z,26.73
2017-03-10T08:39:48.221Z,26.16
2017-03-10T08:40:48.561Z,23.37
2017-03-10T08:41:48.568Z,22.26
2017-03-10T08:42:48.638Z,21.2
2017-03-10T08:43:48.637Z,19.78
2017-03-10T08:44:48.599Z,19.01
2017-03-10T08:45:48.609Z,18.44
2017-03-10T08:46:48.673Z,18.15
2017-03-10T08:47:48.688Z,18.16
2017-03-10T08:48:48.748Z,17.68
2017-03-10T08:49:48.656Z,17.88
2017-03-10T08:50:48.708Z,17.98
2017-03-10T08:51:48.671Z,18.07
2017-03-10T08:52:48.343Z,17.97
2017-03-10T08:53:48.718Z,19.92
2017-03-10T08:54:48.766Z,20.76
2017-03-10T08:55:48.765Z,21.91
2017-03-10T08:56:48.738Z,23.04
2017-03-10T08:57:48.835Z,20.6
2017-03-10T08:58:48.418Z,18.9
2017-03-10T08:59:48.758Z,18.15
2017-03-10T09:00:48.831Z,19.62
2017-03-10T09:01:48.830Z,18.72
2017-03-10T09:02:48.792Z,19.23
2017-03-10T09:03:48.508Z,21.83
2017-03-10T09:04:48.429Z,22.16
2017-03-10T09:05:48.825Z,20.14
2017-03-10T09:06:48.836Z,18.62
2017-03-10T09:07:48.850Z,18.34
2017-03-10T09:08:48.954Z,18.36
2017-03-10T09:09:48.879Z,18.07
2017-03-10T09:10:48.931Z,17.77
2017-03-10T09:11:48.903Z,17.58
2017-03-10T09:12:48.952Z,17.69
2017-03-10T09:13:48.966Z,17.39
2017-03-10T09:14:48.988Z,17.3
2017-03-10T09:15:48.992Z,16.92
2017-03-10T09:16:49.003Z,17.31
2017-03-10T09:17:49.020Z,17.4
2017-03-10T09:18:48.989Z,17.3
2017-03-10T09:19:49.094Z,17.3
2017-03-10T09:20:48.999Z,17.4
2017-03-10T09:21:49.114Z,16.91
2017-03-10T09:22:49.075Z,17.7
2017-03-10T09:23:49.092Z,18.26
2017-03-10T09:24:49.125Z,18.07
2017-03-10T09:25:49.116Z,18.95
2017-03-10T09:26:49.174Z,20.76
2017-03-10T09:27:49.091Z,23.05
2017-03-10T09:28:49.148Z,24.67
2017-03-10T09:29:49.206Z,26.09
2017-03-10T09:30:49.138Z,26.46
2017-03-10T09:31:49.177Z,26.84
2017-03-10T09:32:49.192Z,27.31
2017-03-10T09:33:49.232Z,27.89
2017-03-10T09:34:49.173Z,27.98
2017-03-10T09:35:49.177Z,28.17
2017-03-10T09:36:49.174Z,27.97
2017-03-10T09:37:49.242Z,27.58
2017-03-10T09:38:49.306Z,27.6
2017-03-10T09:39:49.269Z,27.4
2017-03-10T09:40:49.234Z,26.84
2017-03-10T09:41:49.234Z,27.32
2017-03-10T09:42:49.225Z,27.32
2017-03-10T09:43:48.941Z,27.31
2017-03-10T09:44:49.247Z,27.87
2017-03-10T09:45:49.700Z,28.26
2017-03-10T09:46:49.259Z,28.17
2017-03-10T09:47:49.367Z,28.45
2017-03-10T09:48:49.322Z,28.64
2017-03-10T09:49:48.888Z,28.73
2017-03-10T09:50:49.395Z,28.92
2017-03-10T09:51:49.298Z,29.02
2017-03-10T09:52:49.305Z,29.02
2017-03-10T09:53:49.318Z,29.32
2017-03-10T09:54:49.324Z,29.22
2017-03-10T09:55:49.348Z,29.32
2017-03-10T09:56:49.338Z,28.92
2017-03-10T09:57:49.849Z,29.39
2017-03-10T09:58:49.356Z,29.49
2017-03-10T09:59:49.413Z,29.69
2017-03-10T10:00:48.982Z,29.59
2017-03-10T10:01:49.752Z,30.07
2017-03-10T10:02:49.438Z,29.78
2017-03-10T10:03:49.392Z,30.07
2017-03-10T10:04:49.396Z,29.96
2017-03-10T10:05:49.404Z,30.54
2017-03-10T10:06:49.529Z,28.81
2017-03-10T10:07:49.882Z,28.22
2017-03-10T10:08:49.427Z,28.41
2017-03-10T10:09:49.436Z,27.64
2017-03-10T10:10:49.438Z,27.34
2017-03-10T10:11:49.492Z,26.97
2017-03-10T10:12:49.501Z,26.57
2017-03-10T10:13:49.508Z,26.48
2017-03-10T10:14:49.569Z,27.26
2017-03-10T10:15:49.532Z,25.73
2017-03-10T10:16:49.473Z,26.61
2017-03-10T10:17:49.539Z,26.2
2017-03-10T10:18:49.586Z,25.73
2017-03-10T10:19:49.491Z,26.32
2017-03-10T10:20:49.550Z,25.36
2017-03-10T10:21:49.160Z,25.36
2017-03-10T10:22:49.556Z,24.58
2017-03-10T10:23:49.566Z,24.39
2017-03-10T10:24:49.123Z,24.97
2017-03-10T10:25:49.126Z,24.09
2017-03-10T10:26:49.543Z,24.78
2017-03-10T10:27:49.140Z,24.68
2017-03-10T10:28:49.588Z,23.71
2017-03-10T10:29:49.550Z,23.71
2017-03-10T10:30:49.652Z,23.61
2017-03-10T10:31:49.556Z,24.01
2017-03-10T10:32:49.614Z,24.29
2017-03-10T10:33:49.618Z,24.49
2017-03-10T10:34:49.178Z,23.71
2017-03-10T10:35:49.579Z,24.58
2017-03-10T10:36:49.589Z,24.69
2017-03-10T10:37:49.642Z,24.4
2017-03-10T10:38:49.698Z,24.11
2017-03-10T10:39:49.681Z,24.98
2017-03-10T10:40:50.413Z,25.37
2017-03-10T10:41:49.638Z,24.49
2017-03-10T10:42:49.719Z,25.47
2017-03-10T10:43:49.674Z,24.5
2017-03-10T10:44:49.630Z,24.21
2017-03-10T10:45:49.749Z,24.21
2017-03-10T10:46:49.641Z,24.1
2017-03-10T10:47:49.702Z,25.46
2017-03-10T10:48:49.668Z,25.36
2017-03-10T10:49:49.671Z,24.88
2017-03-10T10:50:49.717Z,24.68
2017-03-10T10:51:49.670Z,24.78
2017-03-10T10:52:49.335Z,25.14
2017-03-10T10:53:49.680Z,25.35
2017-03-10T10:54:49.785Z,25.25
2017-03-10T10:55:49.746Z,23.99
2017-03-10T10:56:49.751Z,25.15
2017-03-10T10:57:49.754Z,24.19
2017-03-10T10:58:49.767Z,24.29
2017-03-10T10:59:49.420Z,23.71
2017-03-10T11:00:49.329Z,23.71
2017-03-10T11:01:49.725Z,23.71
2017-03-10T11:02:49.727Z,23.33
2017-03-10T11:03:49.386Z,24.78
2017-03-10T11:04:49.753Z,24.19
2017-03-10T11:05:49.793Z,24.1
2017-03-10T11:06:49.800Z,23.33
2017-03-10T11:07:49.407Z,23.52
2017-03-10T11:08:49.773Z,23.7
2017-03-10T11:09:49.767Z,23.79
2017-03-10T11:10:49.833Z,24.17
2017-03-10T11:11:49.838Z,24.08
2017-03-10T11:12:49.780Z,23.21
2017-03-10T11:13:49.796Z,23.11
2017-03-10T11:14:49.799Z,24.37
2017-03-10T11:15:49.846Z,24.09
2017-03-10T11:16:49.798Z,24.28
2017-03-10T11:17:49.873Z,23.02
2017-03-10T11:18:49.868Z,23.6
2017-03-10T11:19:49.822Z,23.99
2017-03-10T11:20:49.871Z,23.32
2017-03-10T11:21:49.888Z,23.22
2017-03-10T11:22:49.895Z,23.32
2017-03-10T11:23:49.841Z,24.37
2017-03-10T11:24:49.846Z,24.27
2017-03-10T11:25:49.847Z,23.12
2017-03-10T11:26:49.899Z,22.92
2017-03-10T11:27:49.861Z,24.56
2017-03-10T11:28:49.870Z,24.17
2017-03-10T11:29:49.864Z,23.99
2017-03-10T11:30:49.869Z,23.4
2017-03-10T11:31:49.930Z,23.79
2017-03-10T11:32:49.877Z,23.01
2017-03-10T11:33:49.881Z,23.21
2017-03-10T11:34:49.938Z,24.37
2017-03-10T11:35:49.890Z,23.7
2017-03-10T11:36:50.000Z,23.32
2017-03-10T11:37:49.505Z,23.8
2017-03-10T11:38:49.964Z,24.38
2017-03-10T11:39:50.023Z,23.5
2017-03-10T11:40:49.570Z,23.12
2017-03-10T11:41:49.920Z,23.13
2017-03-10T11:42:49.930Z,23.33
2017-03-10T11:44:04.410Z,23.02
2017-03-10T11:44:49.993Z,24.1
2017-03-10T11:45:49.548Z,23.03
2017-03-10T11:46:49.946Z,23.03
2017-03-10T11:47:49.559Z,22.36
2017-03-10T11:48:50.011Z,22.25
2017-03-10T11:49:50.015Z,21.97
2017-03-10T11:50:49.970Z,22.06
2017-03-10T11:51:49.991Z,22.16
2017-03-10T11:52:50.084Z,21.96
2017-03-10T11:53:49.591Z,22.16
2017-03-10T11:54:50.045Z,22.33
2017-03-10T11:55:50.050Z,22.33
2017-03-10T11:56:50.001Z,22.92
2017-03-10T11:57:50.121Z,22.25
2017-03-10T11:58:50.018Z,22.83
2017-03-10T11:59:50.069Z,22.25
2017-03-10T12:00:51.777Z,22.64
2017-03-10T12:01:49.643Z,23.01
2017-03-10T12:02:50.035Z,24.16
2017-03-10T12:03:50.090Z,23.29
2017-03-10T12:04:50.142Z,23.01
2017-03-10T12:05:50.048Z,24.55
2017-03-10T12:06:49.707Z,24.16
2017-03-10T12:07:50.055Z,23.29
2017-03-10T12:08:49.666Z,23.8
2017-03-10T12:09:50.117Z,23.41
2017-03-10T12:10:50.076Z,22.92
2017-03-10T12:11:49.678Z,23.32
2017-03-10T12:12:50.081Z,23.12
2017-03-10T12:14:04.562Z,22.54
2017-03-10T12:14:50.092Z,22.64
2017-03-10T12:15:50.167Z,23.01
2017-03-10T12:16:50.102Z,23.01
2017-03-10T12:17:50.110Z,23.86
2017-03-10T12:18:50.160Z,23.29
2017-03-10T12:19:50.129Z,24.95
2017-03-10T12:20:50.123Z,24.37
2017-03-10T12:21:50.176Z,24.37
2017-03-10T12:22:50.137Z,23.22
2017-03-10T12:23:49.748Z,22.92
2017-03-10T12:24:50.194Z,23.87
2017-03-10T12:25:50.149Z,23.29
2017-03-10T12:26:50.159Z,23.11
2017-03-10T12:27:50.168Z,24.55
2017-03-10T12:28:50.209Z,24.57
2017-03-10T12:29:50.220Z,23.02
2017-03-10T12:30:50.219Z,22.36
2017-03-10T12:31:50.181Z,22.36
2017-03-10T12:32:50.247Z,22.44
2017-03-10T12:33:49.940Z,22.72
2017-03-10T12:34:50.256Z,21.96
2017-03-10T12:35:50.298Z,22.14
2017-03-10T12:36:50.196Z,21.85
2017-03-10T12:37:50.203Z,22.06
2017-03-10T12:38:50.209Z,21.96
2017-03-10T12:39:50.322Z,21.86
2017-03-10T12:40:50.222Z,23.5
2017-03-10T12:41:49.836Z,23.41
2017-03-10T12:42:49.942Z,23.02
2017-03-10T12:44:04.767Z,22.54
2017-03-10T12:44:50.361Z,22.16
2017-03-10T12:45:49.854Z,21.86
2017-03-10T12:46:50.305Z,21.95
2017-03-10T12:47:50.307Z,22.34
2017-03-10T12:48:50.315Z,22.14
2017-03-10T12:49:50.320Z,22.54
2017-03-10T12:50:50.277Z,22.25
2017-03-10T12:51:50.329Z,23.41
2017-03-10T12:52:51.637Z,23.12
2017-03-10T12:53:50.310Z,22.06
2017-03-10T12:54:50.372Z,21.77
2017-03-10T12:55:50.419Z,22.92
2017-03-10T12:56:50.372Z,22.44
2017-03-10T12:57:50.320Z,22.06
2017-03-10T12:58:50.320Z,22.91